sensor_id;sensor_type;location;lat;lon;timestamp;pressure;altitude;pressure_sealevel;temperature;humidity
52983;BME280;48698;45.736;13.926;2022-09-23T00:03:42;98151.16;;;4.54;100.00
52983;BME280;48698;45.736;13.926;2022-09-23T00:08:47;98151.84;;;4.64;100.00
52983;BME280;48698;45.736;13.926;2022-09-23T00:13:56;98159.91;;;4.56;100.00
52983;BME280;48698;45.736;13.926;2022-09-23T00:19:00;98108.13;;;4.14;100.00
52983;BME280;48698;45.736;13.926;2022-09-23T00:24:03;98116.06;;;4.09;100.00
52983;BME280;48698;45.736;13.926;2022-09-23T00:29:07;98156.31;;;4.11;100.00
52983;BME280;48698;45.736;13.926;2022-09-23T00:34:10;98148.03;;;4.34;100.00
52983;BME280;48698;45.736;13.926;2022-09-23T00:39:13;98119.53;;;4.11;100.00
52983;BME280;48698;45.736;13.926;2022-09-23T00:50:09;98131.03;;;4.06;100.00
52983;BME280;48698;45.736;13.926;2022-09-23T00:55:24;98114.84;;;3.78;100.00
52983;BME280;48698;45.736;13.926;2022-09-23T01:00:28;98120.22;;;3.72;100.00
52983;BME280;48698;45.736;13.926;2022-09-23T01:05:33;98131.31;;;3.89;100.00
52983;BME280;48698;45.736;13.926;2022-09-23T01:10:59;98129.53;;;4.39;100.00
52983;BME280;48698;45.736;13.926;2022-09-23T01:16:08;98128.34;;;4.56;100.00
52983;BME280;48698;45.736;13.926;2022-09-23T01:32:15;98113.38;;;7.06;100.00
52983;BME280;48698;45.736;13.926;2022-09-23T01:42:53;98061.47;;;8.36;100.00
52983;BME280;48698;45.736;13.926;2022-09-23T01:53:37;98060.50;;;9.10;100.00
52983;BME280;48698;45.736;13.926;2022-09-23T01:59:07;98055.97;;;9.12;100.00
52983;BME280;48698;45.736;13.926;2022-09-23T02:04:17;98002.28;;;8.85;100.00
52983;BME280;48698;45.736;13.926;2022-09-23T02:09:28;98034.72;;;9.35;100.00
52983;BME280;48698;45.736;13.926;2022-09-23T02:14:47;98019.09;;;9.29;100.00
52983;BME280;48698;45.736;13.926;2022-09-23T02:19:55;97992.97;;;9.20;100.00
52983;BME280;48698;45.736;13.926;2022-09-23T02:25:00;98037.38;;;9.35;100.00
52983;BME280;48698;45.736;13.926;2022-09-23T02:30:10;98021.97;;;9.23;100.00
52983;BME280;48698;45.736;13.926;2022-09-23T02:35:32;97974.84;;;8.88;100.00
52983;BME280;48698;45.736;13.926;2022-09-23T02:40:40;98040.03;;;9.35;100.00
52983;BME280;48698;45.736;13.926;2022-09-23T02:45:46;98048.94;;;9.34;100.00
52983;BME280;48698;45.736;13.926;2022-09-23T02:50:49;97988.06;;;8.88;100.00
52983;BME280;48698;45.736;13.926;2022-09-23T02:55:52;98029.38;;;8.92;100.00
52983;BME280;48698;45.736;13.926;2022-09-23T03:06:29;97915.66;;;6.67;100.00
52983;BME280;48698;45.736;13.926;2022-09-23T03:11:36;98009.78;;;6.38;100.00
52983;BME280;48698;45.736;13.926;2022-09-23T03:16:57;98035.56;;;6.59;100.00
52983;BME280;48698;45.736;13.926;2022-09-23T03:22:11;98057.84;;;6.78;100.00
52983;BME280;48698;45.736;13.926;2022-09-23T03:27:17;97987.50;;;6.17;100.00
52983;BME280;48698;45.736;13.926;2022-09-23T03:32:23;97955.72;;;6.23;100.00
52983;BME280;48698;45.736;13.926;2022-09-23T03:37:34;97984.34;;;6.35;100.00
52983;BME280;48698;45.736;13.926;2022-09-23T03:42:39;98015.94;;;6.67;100.00
52983;BME280;48698;45.736;13.926;2022-09-23T03:47:43;98041.22;;;6.76;100.00
52983;BME280;48698;45.736;13.926;2022-09-23T03:52:47;97980.44;;;6.19;100.00
52983;BME280;48698;45.736;13.926;2022-09-23T03:57:52;98049.53;;;6.62;100.00
52983;BME280;48698;45.736;13.926;2022-09-23T04:02:55;97907.81;;;5.77;100.00
52983;BME280;48698;45.736;13.926;2022-09-23T04:07:58;97997.81;;;6.26;100.00
52983;BME280;48698;45.736;13.926;2022-09-23T04:13:02;97976.66;;;5.97;100.00
52983;BME280;48698;45.736;13.926;2022-09-23T04:18:04;98039.47;;;6.44;100.00
52983;BME280;48698;45.736;13.926;2022-09-23T04:23:07;97970.13;;;5.78;100.00
52983;BME280;48698;45.736;13.926;2022-09-23T04:28:11;97938.91;;;5.62;100.00
52983;BME280;48698;45.736;13.926;2022-09-23T04:33:15;98000.38;;;5.97;100.00
52983;BME280;48698;45.736;13.926;2022-09-23T04:38:18;97950.59;;;5.86;100.00
52983;BME280;48698;45.736;13.926;2022-09-23T04:43:21;98046.81;;;6.33;100.00
52983;BME280;48698;45.736;13.926;2022-09-23T04:48:25;98050.22;;;6.38;100.00
52983;BME280;48698;45.736;13.926;2022-09-23T04:53:28;97943.16;;;5.36;100.00
52983;BME280;48698;45.736;13.926;2022-09-23T04:58:31;98013.44;;;5.67;100.00
52983;BME280;48698;45.736;13.926;2022-09-23T05:03:36;98045.84;;;6.06;100.00
52983;BME280;48698;45.736;13.926;2022-09-23T05:08:40;97979.59;;;5.85;100.00
52983;BME280;48698;45.736;13.926;2022-09-23T05:13:45;97981.78;;;6.03;100.00
52983;BME280;48698;45.736;13.926;2022-09-23T05:18:52;98034.22;;;6.44;100.00
52983;BME280;48698;45.736;13.926;2022-09-23T05:23:56;97976.00;;;5.89;100.00
52983;BME280;48698;45.736;13.926;2022-09-23T05:29:02;97957.28;;;5.98;100.00
52983;BME280;48698;45.736;13.926;2022-09-23T05:34:08;97934.41;;;6.00;100.00
52983;BME280;48698;45.736;13.926;2022-09-23T05:39:19;98018.47;;;6.41;100.00
52983;BME280;48698;45.736;13.926;2022-09-23T05:44:23;97999.91;;;6.44;100.00
52983;BME280;48698;45.736;13.926;2022-09-23T05:49:27;98013.41;;;6.63;100.00
52983;BME280;48698;45.736;13.926;2022-09-23T05:54:51;97889.59;;;6.00;100.00
52983;BME280;48698;45.736;13.926;2022-09-23T05:59:57;97985.34;;;6.60;100.00
52983;BME280;48698;45.736;13.926;2022-09-23T06:05:01;98029.25;;;7.20;100.00
52983;BME280;48698;45.736;13.926;2022-09-23T06:10:05;97963.78;;;7.03;100.00
52983;BME280;48698;45.736;13.926;2022-09-23T06:15:09;98036.97;;;7.54;100.00
52983;BME280;48698;45.736;13.926;2022-09-23T06:20:15;97977.97;;;7.27;100.00
52983;BME280;48698;45.736;13.926;2022-09-23T06:25:19;97978.38;;;7.41;100.00
52983;BME280;48698;45.736;13.926;2022-09-23T06:30:25;98011.53;;;7.76;100.00
52983;BME280;48698;45.736;13.926;2022-09-23T06:35:31;98054.00;;;8.22;100.00
52983;BME280;48698;45.736;13.926;2022-09-23T06:40:35;98000.16;;;8.23;100.00
52983;BME280;48698;45.736;13.926;2022-09-23T06:45:40;97992.13;;;8.51;100.00
52983;BME280;48698;45.736;13.926;2022-09-23T06:50:45;98011.91;;;8.88;100.00
52983;BME280;48698;45.736;13.926;2022-09-23T06:56:08;97976.88;;;9.03;100.00
52983;BME280;48698;45.736;13.926;2022-09-23T07:01:15;98022.16;;;9.62;100.00
52983;BME280;48698;45.736;13.926;2022-09-23T07:06:19;97999.22;;;9.81;100.00
52983;BME280;48698;45.736;13.926;2022-09-23T07:11:23;97975.44;;;10.00;100.00
52983;BME280;48698;45.736;13.926;2022-09-23T07:16:27;98042.09;;;10.73;100.00
52983;BME280;48698;45.736;13.926;2022-09-23T07:21:31;98002.97;;;10.76;100.00
52983;BME280;48698;45.736;13.926;2022-09-23T07:26:35;97970.00;;;10.80;100.00
52983;BME280;48698;45.736;13.926;2022-09-23T07:31:44;97966.34;;;11.02;100.00
52983;BME280;48698;45.736;13.926;2022-09-23T07:36:48;97995.94;;;11.49;100.00
52983;BME280;48698;45.736;13.926;2022-09-23T07:41:52;97934.53;;;11.36;100.00
52983;BME280;48698;45.736;13.926;2022-09-23T07:46:55;98004.16;;;12.14;100.00
52983;BME280;48698;45.736;13.926;2022-09-23T07:51:58;98028.66;;;12.55;100.00
52983;BME280;48698;45.736;13.926;2022-09-23T07:57:02;98026.16;;;12.85;100.00
52983;BME280;48698;45.736;13.926;2022-09-23T08:02:07;98022.19;;;13.25;100.00
52983;BME280;48698;45.736;13.926;2022-09-23T08:07:11;97992.81;;;13.56;100.00
52983;BME280;48698;45.736;13.926;2022-09-23T08:12:17;98034.38;;;14.06;100.00
52983;BME280;48698;45.736;13.926;2022-09-23T08:17:20;98013.53;;;14.42;100.00
52983;BME280;48698;45.736;13.926;2022-09-23T08:22:25;97963.63;;;14.42;100.00
52983;BME280;48698;45.736;13.926;2022-09-23T08:27:28;97922.94;;;14.23;100.00
52983;BME280;48698;45.736;13.926;2022-09-23T08:32:31;97877.16;;;14.43;100.00
52983;BME280;48698;45.736;13.926;2022-09-23T08:37:34;98003.00;;;15.52;100.00
52983;BME280;48698;45.736;13.926;2022-09-23T08:42:47;97989.78;;;15.63;100.00
52983;BME280;48698;45.736;13.926;2022-09-23T08:47:57;98002.88;;;16.07;100.00
52983;BME280;48698;45.736;13.926;2022-09-23T08:53:06;97827.41;;;15.23;100.00
52983;BME280;48698;45.736;13.926;2022-09-23T08:58:32;98037.31;;;16.90;100.00
52983;BME280;48698;45.736;13.926;2022-09-23T09:03:49;98032.31;;;18.07;100.00
52983;BME280;48698;45.736;13.926;2022-09-23T09:08:56;98038.19;;;18.71;100.00
52983;BME280;48698;45.736;13.926;2022-09-23T09:14:10;98024.41;;;18.98;85.65
52983;BME280;48698;45.736;13.926;2022-09-23T09:19:19;97971.81;;;19.05;92.27
52983;BME280;48698;45.736;13.926;2022-09-23T09:24:30;97920.66;;;18.61;70.10
52983;BME280;48698;45.736;13.926;2022-09-23T09:39:53;98000.13;;;19.76;69.96
52983;BME280;48698;45.736;13.926;2022-09-23T09:49:50;98023.97;;;20.23;80.34
52983;BME280;48698;45.736;13.926;2022-09-23T10:05:33;97977.72;;;20.07;71.77
52983;BME280;48698;45.736;13.926;2022-09-23T10:10:49;97776.84;;;17.87;98.49
52983;BME280;48698;45.736;13.926;2022-09-23T10:15:59;97977.72;;;18.53;100.00
52983;BME280;48698;45.736;13.926;2022-09-23T10:21:13;97978.56;;;19.76;89.39
52983;BME280;48698;45.736;13.926;2022-09-23T10:26:27;97957.22;;;18.96;97.77
52983;BME280;48698;45.736;13.926;2022-09-23T10:31:37;97805.16;;;19.66;77.20
52983;BME280;48698;45.736;13.926;2022-09-23T10:41:40;97970.28;;;18.56;100.00
52983;BME280;48698;45.736;13.926;2022-09-23T10:57:18;97988.56;;;19.08;99.66
52983;BME280;48698;45.736;13.926;2022-09-23T11:08:44;97982.16;;;19.65;100.00
52983;BME280;48698;45.736;13.926;2022-09-23T11:40:28;97782.81;;;17.79;100.00
52983;BME280;48698;45.736;13.926;2022-09-23T11:51:11;97912.97;;;18.78;100.00
52983;BME280;48698;45.736;13.926;2022-09-23T11:56:31;97959.06;;;18.28;100.00
52983;BME280;48698;45.736;13.926;2022-09-23T12:01:45;97898.41;;;18.70;100.00
52983;BME280;48698;45.736;13.926;2022-09-23T12:06:57;97846.38;;;18.02;100.00
52983;BME280;48698;45.736;13.926;2022-09-23T12:12:12;97948.66;;;18.80;100.00
52983;BME280;48698;45.736;13.926;2022-09-23T12:17:56;97913.69;;;18.80;100.00
52983;BME280;48698;45.736;13.926;2022-09-23T12:28:38;97913.50;;;17.91;100.00
52983;BME280;48698;45.736;13.926;2022-09-23T12:33:55;97933.38;;;18.24;100.00
52983;BME280;48698;45.736;13.926;2022-09-23T12:39:13;97877.91;;;18.12;100.00
52983;BME280;48698;45.736;13.926;2022-09-23T12:54:32;97852.53;;;18.60;100.00
52983;BME280;48698;45.736;13.926;2022-09-23T12:59:54;97907.81;;;18.64;100.00
52983;BME280;48698;45.736;13.926;2022-09-23T13:05:24;97868.75;;;18.36;100.00
52983;BME280;48698;45.736;13.926;2022-09-23T13:11:01;97847.13;;;18.38;100.00
52983;BME280;48698;45.736;13.926;2022-09-23T13:31:58;97904.72;;;17.89;100.00
52983;BME280;48698;45.736;13.926;2022-09-23T13:37:18;97908.03;;;18.39;100.00
52983;BME280;48698;45.736;13.926;2022-09-23T13:42:27;97901.00;;;18.14;100.00
52983;BME280;48698;45.736;13.926;2022-09-23T13:47:33;97803.03;;;17.37;100.00
52983;BME280;48698;45.736;13.926;2022-09-23T13:52:44;97852.16;;;17.74;100.00
52983;BME280;48698;45.736;13.926;2022-09-23T13:57:56;97865.00;;;17.82;100.00
52983;BME280;48698;45.736;13.926;2022-09-23T14:03:24;97841.84;;;17.33;100.00
52983;BME280;48698;45.736;13.926;2022-09-23T14:08:29;97835.13;;;17.86;100.00
52983;BME280;48698;45.736;13.926;2022-09-23T14:13:43;97870.22;;;17.72;100.00
52983;BME280;48698;45.736;13.926;2022-09-23T14:18:49;97864.91;;;17.94;100.00
52983;BME280;48698;45.736;13.926;2022-09-23T14:23:55;97733.19;;;16.80;100.00
52983;BME280;48698;45.736;13.926;2022-09-23T14:28:59;97776.91;;;17.04;100.00
52983;BME280;48698;45.736;13.926;2022-09-23T14:34:03;97827.50;;;17.69;100.00
52983;BME280;48698;45.736;13.926;2022-09-23T14:39:11;97749.19;;;17.17;100.00
52983;BME280;48698;45.736;13.926;2022-09-23T14:44:20;97817.84;;;17.43;100.00
52983;BME280;48698;45.736;13.926;2022-09-23T14:49:25;97888.03;;;17.73;100.00
52983;BME280;48698;45.736;13.926;2022-09-23T14:59:50;97873.53;;;17.52;100.00
52983;BME280;48698;45.736;13.926;2022-09-23T15:10:17;97754.25;;;17.09;100.00
52983;BME280;48698;45.736;13.926;2022-09-23T15:15:25;97858.69;;;17.35;100.00
52983;BME280;48698;45.736;13.926;2022-09-23T15:20:36;97814.66;;;17.14;100.00
52983;BME280;48698;45.736;13.926;2022-09-23T15:25:40;97868.91;;;17.07;100.00
52983;BME280;48698;45.736;13.926;2022-09-23T15:30:44;97857.59;;;17.14;100.00
52983;BME280;48698;45.736;13.926;2022-09-23T15:35:48;97824.75;;;17.34;100.00
52983;BME280;48698;45.736;13.926;2022-09-23T15:40:53;97845.44;;;17.80;100.00
52983;BME280;48698;45.736;13.926;2022-09-23T15:46:04;97826.72;;;17.56;100.00
52983;BME280;48698;45.736;13.926;2022-09-23T15:51:13;97826.19;;;16.67;100.00
52983;BME280;48698;45.736;13.926;2022-09-23T15:56:17;97820.84;;;16.54;100.00
52983;BME280;48698;45.736;13.926;2022-09-23T16:01:26;97755.00;;;16.50;100.00
52983;BME280;48698;45.736;13.926;2022-09-23T16:06:31;97767.44;;;16.02;100.00
52983;BME280;48698;45.736;13.926;2022-09-23T16:11:35;97727.50;;;15.49;100.00
52983;BME280;48698;45.736;13.926;2022-09-23T16:16:39;97792.75;;;15.34;100.00
52983;BME280;48698;45.736;13.926;2022-09-23T16:21:44;97647.38;;;14.43;100.00
52983;BME280;48698;45.736;13.926;2022-09-23T16:26:48;97763.19;;;14.57;100.00
52983;BME280;48698;45.736;13.926;2022-09-23T16:31:54;97686.91;;;14.24;100.00
52983;BME280;48698;45.736;13.926;2022-09-23T16:36:58;97817.63;;;14.82;100.00
52983;BME280;48698;45.736;13.926;2022-09-23T16:42:02;97805.00;;;14.15;100.00
52983;BME280;48698;45.736;13.926;2022-09-23T16:47:07;97839.88;;;13.70;100.00
52983;BME280;48698;45.736;13.926;2022-09-23T16:52:11;97798.16;;;13.25;100.00
52983;BME280;48698;45.736;13.926;2022-09-23T16:57:16;97813.59;;;12.73;100.00
52983;BME280;48698;45.736;13.926;2022-09-23T17:02:20;97796.69;;;12.58;100.00
52983;BME280;48698;45.736;13.926;2022-09-23T17:07:42;97844.09;;;12.20;100.00
52983;BME280;48698;45.736;13.926;2022-09-23T17:12:56;97845.63;;;11.76;100.00
52983;BME280;48698;45.736;13.926;2022-09-23T17:18:01;97807.44;;;11.60;100.00
52983;BME280;48698;45.736;13.926;2022-09-23T17:23:08;97764.53;;;10.99;100.00
52983;BME280;48698;45.736;13.926;2022-09-23T17:28:12;97824.53;;;10.85;100.00
52983;BME280;48698;45.736;13.926;2022-09-23T17:33:17;97777.59;;;10.67;100.00
52983;BME280;48698;45.736;13.926;2022-09-23T17:38:23;97846.31;;;11.28;100.00
52983;BME280;48698;45.736;13.926;2022-09-23T17:43:31;97712.31;;;10.46;100.00
52983;BME280;48698;45.736;13.926;2022-09-23T17:48:37;97829.31;;;10.96;100.00
52983;BME280;48698;45.736;13.926;2022-09-23T17:53:42;97862.28;;;10.56;100.00
52983;BME280;48698;45.736;13.926;2022-09-23T17:58:48;97889.91;;;10.13;100.00
52983;BME280;48698;45.736;13.926;2022-09-23T18:19:46;97850.47;;;9.47;100.00
52983;BME280;48698;45.736;13.926;2022-09-23T18:24:51;97809.06;;;9.24;100.00
52983;BME280;48698;45.736;13.926;2022-09-23T18:29:55;97877.50;;;9.75;100.00
52983;BME280;48698;45.736;13.926;2022-09-23T18:35:00;97858.97;;;9.94;100.00
52983;BME280;48698;45.736;13.926;2022-09-23T18:40:04;97763.66;;;9.31;100.00
52983;BME280;48698;45.736;13.926;2022-09-23T18:45:11;97780.94;;;9.98;100.00
52983;BME280;48698;45.736;13.926;2022-09-23T18:50:15;97880.22;;;10.12;100.00
52983;BME280;48698;45.736;13.926;2022-09-23T19:05:31;97820.56;;;9.63;100.00
52983;BME280;48698;45.736;13.926;2022-09-23T19:10:36;97866.66;;;9.41;100.00
52983;BME280;48698;45.736;13.926;2022-09-23T19:15:39;97849.88;;;9.60;100.00
52983;BME280;48698;45.736;13.926;2022-09-23T19:20:53;97908.13;;;9.82;100.00
52983;BME280;48698;45.736;13.926;2022-09-23T19:26:10;97917.28;;;9.95;100.00
52983;BME280;48698;45.736;13.926;2022-09-23T19:31:18;97901.94;;;10.02;100.00
52983;BME280;48698;45.736;13.926;2022-09-23T19:36:29;97903.97;;;9.76;100.00
52983;BME280;48698;45.736;13.926;2022-09-23T19:41:34;97915.75;;;9.90;100.00
52983;BME280;48698;45.736;13.926;2022-09-23T19:46:39;97833.41;;;9.72;100.00
52983;BME280;48698;45.736;13.926;2022-09-23T19:51:45;97883.31;;;10.03;100.00
52983;BME280;48698;45.736;13.926;2022-09-23T19:56:49;97861.56;;;9.75;100.00
52983;BME280;48698;45.736;13.926;2022-09-23T20:01:53;97890.69;;;9.97;100.00
52983;BME280;48698;45.736;13.926;2022-09-23T20:06:56;97886.31;;;9.55;100.00
52983;BME280;48698;45.736;13.926;2022-09-23T20:12:00;97844.72;;;9.57;100.00
52983;BME280;48698;45.736;13.926;2022-09-23T20:17:04;97844.78;;;9.95;100.00
52983;BME280;48698;45.736;13.926;2022-09-23T20:22:09;97855.00;;;10.04;100.00
52983;BME280;48698;45.736;13.926;2022-09-23T20:27:34;97891.28;;;9.63;100.00
52983;BME280;48698;45.736;13.926;2022-09-23T20:32:38;97823.63;;;9.14;100.00
52983;BME280;48698;45.736;13.926;2022-09-23T20:37:46;97855.44;;;9.54;100.00
52983;BME280;48698;45.736;13.926;2022-09-23T20:42:49;97891.34;;;9.81;100.00
52983;BME280;48698;45.736;13.926;2022-09-23T20:47:53;97878.69;;;9.68;100.00
52983;BME280;48698;45.736;13.926;2022-09-23T20:52:58;97862.59;;;9.52;100.00
52983;BME280;48698;45.736;13.926;2022-09-23T20:58:01;97805.09;;;9.34;100.00
52983;BME280;48698;45.736;13.926;2022-09-23T21:03:05;97843.16;;;9.31;100.00
52983;BME280;48698;45.736;13.926;2022-09-23T21:08:09;97827.13;;;8.94;100.00
52983;BME280;48698;45.736;13.926;2022-09-23T21:13:12;97779.69;;;8.23;100.00
52983;BME280;48698;45.736;13.926;2022-09-23T21:18:16;97729.38;;;8.46;100.00
52983;BME280;48698;45.736;13.926;2022-09-23T21:23:32;97887.00;;;9.40;100.00
52983;BME280;48698;45.736;13.926;2022-09-23T21:28:38;97802.00;;;8.39;100.00
52983;BME280;48698;45.736;13.926;2022-09-23T21:33:42;97827.00;;;8.75;100.00
52983;BME280;48698;45.736;13.926;2022-09-23T21:38:46;97782.06;;;8.52;100.00
52983;BME280;48698;45.736;13.926;2022-09-23T21:43:50;97821.78;;;8.74;100.00
52983;BME280;48698;45.736;13.926;2022-09-23T21:48:54;97878.84;;;9.03;100.00
52983;BME280;48698;45.736;13.926;2022-09-23T21:54:01;97867.66;;;8.74;100.00
52983;BME280;48698;45.736;13.926;2022-09-23T21:59:05;97885.75;;;9.07;100.00
52983;BME280;48698;45.736;13.926;2022-09-23T22:04:15;97850.09;;;8.50;100.00
52983;BME280;48698;45.736;13.926;2022-09-23T22:09:26;97815.94;;;8.44;100.00
52983;BME280;48698;45.736;13.926;2022-09-23T22:14:30;97885.19;;;8.55;100.00
52983;BME280;48698;45.736;13.926;2022-09-23T22:19:35;97849.53;;;7.96;100.00
52983;BME280;48698;45.736;13.926;2022-09-23T22:24:47;97803.19;;;8.09;100.00
52983;BME280;48698;45.736;13.926;2022-09-23T22:29:50;97853.00;;;7.98;100.00
52983;BME280;48698;45.736;13.926;2022-09-23T22:35:14;97845.34;;;8.13;100.00
52983;BME280;48698;45.736;13.926;2022-09-23T22:40:21;97899.25;;;8.34;100.00
52983;BME280;48698;45.736;13.926;2022-09-23T22:45:26;97878.09;;;8.56;100.00
52983;BME280;48698;45.736;13.926;2022-09-23T22:50:30;97774.41;;;8.01;100.00
52983;BME280;48698;45.736;13.926;2022-09-23T22:55:34;97801.69;;;8.25;100.00
52983;BME280;48698;45.736;13.926;2022-09-23T23:00:38;97882.19;;;8.64;100.00
52983;BME280;48698;45.736;13.926;2022-09-23T23:05:42;97878.09;;;8.34;100.00
52983;BME280;48698;45.736;13.926;2022-09-23T23:10:49;97812.19;;;8.05;100.00
52983;BME280;48698;45.736;13.926;2022-09-23T23:15:53;97805.16;;;8.04;100.00
52983;BME280;48698;45.736;13.926;2022-09-23T23:26:18;97869.09;;;8.61;100.00
52983;BME280;48698;45.736;13.926;2022-09-23T23:31:25;97812.38;;;8.22;100.00
52983;BME280;48698;45.736;13.926;2022-09-23T23:36:29;97800.31;;;8.15;100.00
52983;BME280;48698;45.736;13.926;2022-09-23T23:41:33;97818.25;;;8.30;100.00
52983;BME280;48698;45.736;13.926;2022-09-23T23:46:37;97816.91;;;8.63;100.00
52983;BME280;48698;45.736;13.926;2022-09-23T23:51:40;97798.06;;;8.27;100.00
52983;BME280;48698;45.736;13.926;2022-09-23T23:56:44;97834.41;;;8.67;100.00
